Time;durP1;ratioP1;P1;durP2;ratioP2;P2;SDS_P1;SDS_P2;PMS_P1;PMS_P2;Temp;Humidity;BMP_temperature;BMP_pressure;BME280_temperature;BME280_humidity;BME280_pressure;Samples;Min_cycle;Max_cycle;Signal;HPM_P1;HPM_P2
2022/01/24 00:00:06;;;;;;;25.75;12.13;;;5.10;99.90;;;;;;5093083;28;20032;-68
2022/01/24 00:02:32;;;;;;;27.00;12.60;;;5.10;99.90;;;;;;5092929;28;20024;-68
2022/01/24 00:04:58;;;;;;;27.25;12.80;;;5.10;99.90;;;;;;5089543;28;20033;-68
2022/01/24 00:07:24;;;;;;;27.77;11.80;;;5.20;99.90;;;;;;5095036;28;20490;-68
2022/01/24 00:09:54;;;;;;;27.52;12.68;;;5.20;99.90;;;;;;5100138;28;20069;-68
2022/01/24 00:12:29;;;;;;;27.58;12.15;;;5.20;99.90;;;;;;5088757;28;20058;-68
2022/01/24 00:17:34;;;;;;;28.50;13.25;;;5.20;99.90;;;;;;5090283;28;20172;-68
2022/01/24 00:28:05;;;;;;;26.70;12.98;;;5.20;99.90;;;;;;5095451;28;20066;-66
2022/01/24 00:30:31;;;;;;;28.27;13.27;;;5.80;99.90;;;;;;5090618;28;20395;-68
2022/01/24 00:32:57;;;;;;;24.38;12.00;;;5.20;99.90;;;;;;5090727;28;20040;-69
2022/01/24 00:35:23;;;;;;;22.17;10.38;;;5.20;99.90;;;;;;5097923;28;20039;-68
2022/01/24 00:37:49;;;;;;;27.25;13.98;;;5.20;99.90;;;;;;5090305;28;20494;-68
2022/01/24 00:40:15;;;;;;;31.00;12.70;;;5.20;99.90;;;;;;5091247;28;20051;-68
2022/01/24 00:42:53;;;;;;;26.80;11.95;;;5.20;99.90;;;;;;5101289;28;20039;-68
2022/01/24 00:48:19;;;;;;;25.85;12.65;;;5.20;99.90;;;;;;5094157;28;20050;-68
2022/01/24 00:56:11;;;;;;;28.25;12.80;;;5.20;99.90;;;;;;5090945;28;20144;-68
2022/01/24 00:58:45;;;;;;;27.60;12.77;;;5.20;99.90;;;;;;5092826;28;20020;-69
2022/01/24 01:01:17;;;;;;;29.40;13.80;;;5.20;99.90;;;;;;5091711;28;20074;-68
2022/01/24 01:03:46;;;;;;;30.98;13.77;;;5.10;99.90;;;;;;5093057;28;20042;-68
2022/01/24 01:06:20;;;;;;;29.67;13.55;;;5.10;99.90;;;;;;5103114;28;20032;-68
2022/01/24 01:19:42;;;;;;;29.40;14.02;;;5.20;99.90;;;;;;5032282;28;20024;-68
2022/01/24 01:22:15;;;;;;;28.95;13.98;;;5.10;99.90;;;;;;5031583;28;20091;-68
2022/01/24 01:24:50;;;;;;;30.67;14.10;;;5.00;99.90;;;;;;5040868;28;20028;-68
2022/01/24 01:27:29;;;;;;;32.97;14.38;;;4.90;99.90;;;;;;5048171;28;20032;-68
2022/01/24 01:30:03;;;;;;;30.63;14.60;;;4.80;99.90;;;;;;5048663;28;20464;-68
2022/01/24 01:32:51;;;;;;;30.95;14.15;;;4.70;99.90;;;;;;5041217;28;20039;-68
2022/01/24 01:35:41;;;;;;;31.27;14.23;;;4.60;99.90;;;;;;5047132;28;20503;-68
2022/01/24 01:56:39;;;;;;;;;;;3.90;99.90;;;;;;5061817;28;20104;-68
2022/01/24 01:59:05;;;;;;;30.35;13.07;;;3.90;99.90;;;;;;5048767;28;19920;-68
2022/01/24 02:01:31;;;;;;;31.13;13.70;;;3.80;99.90;;;;;;5043001;28;20037;-68
2022/01/24 02:03:57;;;;;;;32.33;13.05;;;3.70;99.90;;;;;;5043777;28;20100;-68
2022/01/24 02:06:24;;;;;;;27.90;12.85;;;3.60;99.90;;;;;;5048014;28;20723;-68
2022/01/24 02:08:58;;;;;;;30.20;13.23;;;3.60;99.90;;;;;;5050238;28;20038;-67
2022/01/24 02:11:23;;;;;;;28.40;12.18;;;3.50;99.90;;;;;;5052319;28;20063;-68
2022/01/24 02:13:49;;;;;;;28.50;12.52;;;3.50;99.90;;;;;;5042598;28;20077;-68
2022/01/24 02:16:27;;;;;;;29.10;12.00;;;3.40;99.90;;;;;;5050152;28;20395;-68
2022/01/24 02:19:07;;;;;;;30.92;13.02;;;3.40;99.90;;;;;;5049616;28;20043;-68
2022/01/24 02:21:47;;;;;;;28.48;11.95;;;3.30;99.90;;;;;;5051135;28;20036;-68
2022/01/24 02:24:16;;;;;;;27.88;12.63;;;3.30;99.90;;;;;;5049710;28;20436;-68
2022/01/24 02:26:42;;;;;;;37.70;14.40;;;3.20;99.90;;;;;;5051000;28;20411;-68
2022/01/24 02:29:20;;;;;;;33.08;14.02;;;3.20;99.90;;;;;;5040534;28;20033;-68
2022/01/24 02:31:51;;;;;;;30.27;13.35;;;3.20;99.90;;;;;;5038509;28;20829;-68
2022/01/24 02:34:25;;;;;;;28.88;13.30;;;3.10;99.90;;;;;;5048470;28;20076;-68
2022/01/24 02:36:52;;;;;;;25.77;11.60;;;3.10;99.90;;;;;;5045050;28;20435;-68
2022/01/24 02:49:56;;;;;;;25.17;11.15;;;2.90;99.90;;;;;;5049776;28;20089;-68
2022/01/24 02:52:25;;;;;;;29.25;12.32;;;2.80;99.90;;;;;;5050441;28;20033;-68
2022/01/24 02:54:51;;;;;;;29.58;12.18;;;2.80;99.90;;;;;;5048623;28;20045;-68
2022/01/24 02:57:19;;;;;;;27.17;11.13;;;2.70;99.90;;;;;;5051241;28;20025;-68
2022/01/24 02:59:45;;;;;;;30.00;11.77;;;2.70;99.90;;;;;;5049444;28;20041;-68
2022/01/24 03:02:10;;;;;;;26.38;11.52;;;2.70;99.90;;;;;;5049031;28;20039;-67
2022/01/24 03:04:36;;;;;;;27.73;11.40;;;2.70;99.90;;;;;;5050761;28;20037;-68
2022/01/24 03:07:02;;;;;;;24.08;11.75;;;2.60;99.90;;;;;;5048630;28;20104;-68
2022/01/24 03:09:28;;;;;;;26.13;11.15;;;2.60;99.90;;;;;;5048812;28;20097;-68
2022/01/24 03:12:25;;;;;;;27.35;11.77;;;2.60;99.90;;;;;;5049095;28;20479;-68
2022/01/24 03:14:40;;;;;;;27.48;11.73;;;2.50;99.90;;;;;;5046553;28;20041;-68
2022/01/24 03:17:06;;;;;;;27.33;11.88;;;2.50;99.90;;;;;;5049516;28;20372;-68
2022/01/24 03:19:33;;;;;;;28.80;12.05;;;2.50;99.90;;;;;;5046029;28;20125;-68
2022/01/24 03:21:59;;;;;;;25.20;11.60;;;2.50;99.90;;;;;;5048889;28;20086;-68
2022/01/24 03:24:24;;;;;;;26.35;11.55;;;2.40;99.90;;;;;;5048873;28;20029;-67
2022/01/24 03:26:50;;;;;;;27.75;12.00;;;2.40;99.90;;;;;;5050274;28;20479;-67
2022/01/24 03:29:16;;;;;;;26.58;10.88;;;2.40;99.90;;;;;;5049559;28;20491;-68
2022/01/24 03:31:43;;;;;;;24.42;10.80;;;2.40;99.90;;;;;;5048132;28;20071;-68
2022/01/24 03:34:09;;;;;;;24.15;10.35;;;2.30;99.90;;;;;;5040688;28;20044;-67
2022/01/24 03:36:35;;;;;;;25.92;11.40;;;2.30;99.90;;;;;;5041390;28;20037;-68
2022/01/24 03:39:01;;;;;;;24.38;10.45;;;2.30;99.90;;;;;;5048715;28;20033;-68
2022/01/24 03:41:27;;;;;;;24.40;10.15;;;2.30;99.90;;;;;;5049689;28;20202;-68
2022/01/24 03:43:53;;;;;;;22.92;10.57;;;2.20;99.90;;;;;;5051492;28;20029;-68
2022/01/24 03:48:51;;;;;;;25.08;11.02;;;2.20;99.90;;;;;;5050259;28;20053;-68
2022/01/24 03:51:17;;;;;;;25.27;10.65;;;2.20;99.90;;;;;;5048013;28;20490;-68
2022/01/24 03:53:45;;;;;;;23.67;10.75;;;2.10;99.90;;;;;;5047220;28;20037;-67
2022/01/24 03:56:11;;;;;;;28.13;10.90;;;2.10;99.90;;;;;;5050231;28;20025;-68
2022/01/24 03:58:37;;;;;;;25.88;11.18;;;2.10;99.90;;;;;;5050629;28;20107;-68
2022/01/24 04:01:05;;;;;;;27.58;11.65;;;2.10;99.90;;;;;;5049234;28;20421;-68
2022/01/24 04:03:31;;;;;;;27.17;11.40;;;2.10;99.90;;;;;;5047735;28;20104;-67
2022/01/24 04:05:57;;;;;;;24.85;10.95;;;2.00;99.90;;;;;;5042415;28;20102;-67
2022/01/24 04:08:23;;;;;;;25.30;11.23;;;2.00;99.90;;;;;;5048391;28;20443;-68
2022/01/24 04:10:53;;;;;;;27.42;11.40;;;2.00;99.90;;;;;;5050227;28;20029;-66
2022/01/24 04:13:27;;;;;;;29.30;11.20;;;2.00;99.90;;;;;;5047833;28;20106;-68
2022/01/24 04:21:31;;;;;;;26.75;11.27;;;1.90;99.90;;;;;;5048941;28;20116;-68
2022/01/24 04:24:06;;;;;;;37.88;14.60;;;1.90;99.90;;;;;;5035837;28;20120;-68
2022/01/24 04:26:33;;;;;;;35.72;14.18;;;1.90;99.90;;;;;;5032091;28;20029;-68
2022/01/24 04:28:59;;;;;;;31.63;12.95;;;2.10;99.90;;;;;;5051351;28;20017;-67
2022/01/24 04:31:26;;;;;;;30.88;12.55;;;1.80;99.90;;;;;;5048460;28;20033;-68
2022/01/24 04:33:52;;;;;;;29.55;12.30;;;1.80;99.90;;;;;;5047497;28;20511;-68
2022/01/24 04:36:19;;;;;;;29.15;12.07;;;1.80;99.90;;;;;;5048426;28;20029;-68
2022/01/24 04:38:45;;;;;;;32.15;12.32;;;1.80;99.90;;;;;;5048724;28;20503;-68
2022/01/24 04:41:19;;;;;;;28.73;12.05;;;1.80;99.90;;;;;;5049231;28;20068;-68
2022/01/24 04:46:28;;;;;;;38.30;13.80;;;1.80;99.90;;;;;;5046742;28;20450;-67
2022/01/24 04:56:33;;;;;;;45.70;17.63;;;1.80;99.90;;;;;;5047248;28;20483;-68
2022/01/24 04:58:58;;;;;;;45.63;17.55;;;1.90;99.90;;;;;;5051083;28;20111;-68
2022/01/24 05:01:24;;;;;;;40.10;15.85;;;1.90;99.90;;;;;;5046390;28;20387;-68
2022/01/24 05:03:50;;;;;;;45.80;16.70;;;1.90;99.90;;;;;;5046676;28;20033;-68
2022/01/24 05:06:16;;;;;;;48.30;16.25;;;2.00;99.90;;;;;;5061151;28;20695;-67
2022/01/24 05:08:42;;;;;;;42.83;16.55;;;2.00;99.90;;;;;;5048977;28;20064;-67
2022/01/24 05:11:12;;;;;;;46.42;17.35;;;2.00;99.90;;;;;;5043115;28;20037;-67
2022/01/24 05:24:35;;;;;;;52.42;17.90;;;2.10;99.90;;;;;;5048034;28;20040;-67
2022/01/24 05:27:01;;;;;;;42.00;16.90;;;2.10;99.90;;;;;;5046314;28;20512;-67
2022/01/24 05:29:27;;;;;;;49.75;18.70;;;2.10;99.90;;;;;;5045957;28;20028;-67
2022/01/24 05:31:54;;;;;;;46.42;17.70;;;2.10;99.90;;;;;;5046549;28;20029;-68
2022/01/24 05:34:20;;;;;;;49.42;17.15;;;2.10;99.90;;;;;;5045796;28;20084;-68
2022/01/24 05:36:45;;;;;;;50.88;17.27;;;2.10;99.90;;;;;;5045367;28;20483;-69
2022/01/24 05:39:11;;;;;;;48.42;16.88;;;2.10;99.90;;;;;;5042353;28;20057;-69
2022/01/24 05:41:38;;;;;;;46.10;16.50;;;2.10;99.90;;;;;;5043678;28;20029;-71
2022/01/24 05:44:05;;;;;;;42.33;15.77;;;2.00;99.90;;;;;;5046023;28;20116;-71
2022/01/24 05:46:31;;;;;;;44.47;16.60;;;2.00;99.90;;;;;;5044164;28;20476;-69
2022/01/24 05:48:57;;;;;;;39.05;15.95;;;2.00;99.90;;;;;;5045570;28;20029;-70
2022/01/24 05:51:24;;;;;;;46.13;17.58;;;1.90;99.90;;;;;;5046669;28;20082;-69
2022/01/24 05:53:50;;;;;;;47.67;17.45;;;1.90;99.90;;;;;;5037897;28;20087;-71
2022/01/24 05:56:17;;;;;;;45.70;16.95;;;1.90;99.90;;;;;;5048186;28;20539;-71
2022/01/24 05:58:43;;;;;;;50.17;17.80;;;1.90;99.90;;;;;;5049571;28;20032;-73
2022/01/24 06:01:09;;;;;;;46.53;16.52;;;1.90;99.90;;;;;;5046310;28;20631;-74
2022/01/24 06:03:35;;;;;;;45.67;15.57;;;1.90;99.90;;;;;;5048401;28;20487;-76
2022/01/24 06:06:02;;;;;;;41.95;15.52;;;1.90;99.90;;;;;;5046960;28;20475;-74
2022/01/24 06:08:27;;;;;;;52.67;17.80;;;1.80;99.90;;;;;;5046118;28;20037;-68
2022/01/24 06:10:58;;;;;;;48.38;17.15;;;1.80;99.90;;;;;;5046885;28;20017;-73
2022/01/24 06:13:25;;;;;;;52.95;17.85;;;1.80;99.90;;;;;;5045243;28;20052;-73
2022/01/24 06:15:51;;;;;;;55.53;18.45;;;1.80;99.90;;;;;;5046157;28;20079;-71
2022/01/24 06:18:16;;;;;;;56.28;19.38;;;1.80;99.90;;;;;;5043547;28;20036;-72
2022/01/24 06:20:43;;;;;;;60.13;19.35;;;1.80;99.90;;;;;;5042906;28;20033;-72
2022/01/24 06:23:15;;;;;;;53.33;18.23;;;1.80;99.90;;;;;;5040793;28;20383;-72
2022/01/24 06:25:42;;;;;;;51.50;18.00;;;1.80;99.90;;;;;;5044641;28;20361;-70
2022/01/24 06:28:07;;;;;;;61.28;19.42;;;1.80;99.90;;;;;;5045132;28;20029;-69
2022/01/24 06:30:33;;;;;;;64.25;20.30;;;1.80;99.90;;;;;;5047072;28;20032;-69
2022/01/24 06:32:59;;;;;;;62.72;20.17;;;1.80;99.90;;;;;;5043089;28;20021;-69
2022/01/24 06:35:25;;;;;;;59.78;19.85;;;1.80;99.90;;;;;;5048057;28;20642;-70
2022/01/24 06:37:50;;;;;;;57.83;18.73;;;1.80;99.90;;;;;;5042970;28;20059;-69
2022/01/24 06:40:16;;;;;;;58.33;19.15;;;1.80;99.90;;;;;;5044769;28;20120;-69
2022/01/24 06:42:42;;;;;;;58.90;20.35;;;1.70;99.90;;;;;;5045210;28;20036;-69
2022/01/24 06:45:09;;;;;;;61.67;20.70;;;1.80;99.90;;;;;;5047457;28;20039;-70
2022/01/24 06:47:35;;;;;;;55.33;19.67;;;1.80;99.90;;;;;;5040833;28;20809;-69
2022/01/24 06:50:01;;;;;;;54.58;19.23;;;1.70;99.90;;;;;;5042850;28;20410;-69
2022/01/24 06:52:27;;;;;;;58.90;19.13;;;1.70;99.90;;;;;;5048243;28;20112;-70
2022/01/24 06:54:53;;;;;;;52.33;18.83;;;1.70;99.90;;;;;;5050753;28;20076;-68
2022/01/24 06:57:19;;;;;;;51.95;17.70;;;1.70;99.90;;;;;;5048346;28;20466;-69
2022/01/24 06:59:45;;;;;;;52.78;17.73;;;1.60;99.90;;;;;;5041104;28;20034;-68
2022/01/24 07:02:13;;;;;;;48.17;17.10;;;1.60;99.90;;;;;;5052186;28;20070;-68
2022/01/24 07:04:42;;;;;;;51.95;17.17;;;1.60;99.90;;;;;;5054953;28;20049;-68
2022/01/24 07:07:08;;;;;;;47.63;17.52;;;1.60;99.90;;;;;;5053683;28;20017;-69
2022/01/24 07:09:35;;;;;;;49.35;17.90;;;1.50;99.90;;;;;;5055216;28;20131;-68
2022/01/24 07:12:01;;;;;;;49.90;17.60;;;1.50;99.90;;;;;;5055003;28;20013;-68
2022/01/24 07:14:27;;;;;;;44.70;16.88;;;1.50;99.90;;;;;;5045957;28;20067;-68
2022/01/24 07:19:26;;;;;;;48.75;18.80;;;1.40;99.90;;;;;;5055395;28;20116;-68
2022/01/24 07:21:52;;;;;;;;;;;1.40;99.90;;;;;;5055822;28;20036;-68
2022/01/24 07:24:18;;;;;;;45.13;17.88;;;1.40;99.90;;;;;;5053116;28;19999;-68
2022/01/24 07:26:44;;;;;;;48.92;17.27;;;1.40;99.90;;;;;;5054865;28;20076;-68
2022/01/24 07:29:10;;;;;;;46.42;17.83;;;1.30;99.90;;;;;;5056167;28;20021;-68
2022/01/24 07:31:35;;;;;;;51.95;18.08;;;1.30;99.90;;;;;;5048410;28;20055;-68
2022/01/24 07:34:01;;;;;;;46.03;15.45;;;1.30;99.90;;;;;;5044734;28;20103;-69
2022/01/24 07:36:28;;;;;;;42.22;15.10;;;1.30;99.90;;;;;;5053264;28;20021;-69
2022/01/24 07:38:53;;;;;;;43.25;15.95;;;1.30;99.90;;;;;;5053711;28;20017;-68
2022/01/24 07:41:25;;;;;;;40.53;15.75;;;1.30;99.90;;;;;;5044428;28;20432;-68
2022/01/24 07:43:51;;;;;;;42.65;16.17;;;1.30;99.90;;;;;;5054661;28;20052;-68
2022/01/24 07:46:16;;;;;;;45.20;16.70;;;1.30;99.90;;;;;;5049279;28;20480;-68
2022/01/24 07:48:42;;;;;;;49.47;17.85;;;1.30;99.90;;;;;;5048414;28;20135;-68
2022/01/24 07:51:08;;;;;;;49.92;17.63;;;1.30;99.90;;;;;;5043809;28;20037;-68
2022/01/24 07:53:34;;;;;;;46.53;17.52;;;1.30;99.90;;;;;;5048193;28;20021;-68
2022/01/24 07:56:00;;;;;;;45.40;16.88;;;1.30;99.90;;;;;;5052444;28;20033;-69
2022/01/24 07:58:26;;;;;;;45.40;17.00;;;1.40;99.90;;;;;;5050168;28;20037;-69
2022/01/24 08:00:52;;;;;;;53.40;18.05;;;1.40;99.90;;;;;;5047689;28;20411;-68
2022/01/24 08:03:17;;;;;;;53.13;18.10;;;1.50;99.90;;;;;;5048092;28;20052;-68
2022/01/24 08:05:43;;;;;;;44.97;17.08;;;1.60;99.90;;;;;;5046738;28;20092;-68
2022/01/24 08:08:09;;;;;;;52.33;19.63;;;1.70;99.90;;;;;;5050705;28;20112;-67
2022/01/24 08:10:35;;;;;;;53.60;18.98;;;1.90;99.90;;;;;;5050164;28;20032;-69
2022/01/24 08:13:02;;;;;;;49.28;18.63;;;2.00;99.90;;;;;;5047981;28;20044;-68
2022/01/24 08:15:27;;;;;;;74.63;25.42;;;2.30;99.90;;;;;;5047320;28;20045;-69
2022/01/24 08:17:53;;;;;;;87.68;31.95;;;2.70;99.90;;;;;;5049119;28;20021;-69
2022/01/24 08:20:20;;;;;;;114.03;41.35;;;3.50;99.90;;;;;;5049262;28;20108;-69
2022/01/24 08:22:46;;;;;;;66.88;21.35;;;4.40;99.40;;;;;;5040978;28;20276;-69
2022/01/24 08:25:12;;;;;;;44.58;18.85;;;5.30;97.00;;;;;;5048853;28;20372;-70
2022/01/24 08:27:39;;;;;;;49.55;18.00;;;6.10;94.70;;;;;;5048277;28;20086;-69
2022/01/24 08:30:12;;;;;;;47.28;18.63;;;6.90;92.40;;;;;;5049382;28;20025;-69
2022/01/24 08:32:38;;;;;;;42.20;18.52;;;7.60;90.30;;;;;;5047956;28;20071;-69
2022/01/24 08:35:05;;;;;;;37.47;18.08;;;8.40;86.40;;;;;;5050780;28;20404;-69
2022/01/24 08:37:31;;;;;;;37.60;19.10;;;9.00;82.10;;;;;;5048442;28;20028;-69
2022/01/24 08:39:58;;;;;;;37.92;18.08;;;9.60;77.40;;;;;;5044508;28;20028;-70
2022/01/24 08:47:31;;;;;;;51.35;25.60;;;11.40;66.30;;;;;;5048719;28;20021;-70
2022/01/24 08:49:58;;;;;;;44.60;24.95;;;12.10;63.70;;;;;;5051165;28;20040;-70
2022/01/24 08:52:25;;;;;;;44.58;22.85;;;12.70;61.00;;;;;;5043280;28;20490;-71
2022/01/24 08:54:52;;;;;;;39.15;21.83;;;13.40;58.70;;;;;;5043125;28;20086;-69
2022/01/24 08:57:25;;;;;;;42.05;21.70;;;14.00;56.50;;;;;;5045193;28;20060;-70
2022/01/24 08:59:54;;;;;;;32.35;20.23;;;14.60;53.80;;;;;;5047131;28;20042;-71
2022/01/24 09:02:20;;;;;;;29.17;18.02;;;15.20;51.60;;;;;;5049344;28;20100;-70
2022/01/24 09:04:46;;;;;;;30.33;20.25;;;15.80;49.90;;;;;;5049921;28;20103;-71
2022/01/24 09:07:15;;;;;;;32.70;18.55;;;16.40;47.90;;;;;;5045021;28;20490;-71
2022/01/24 09:09:42;;;;;;;36.50;21.23;;;17.00;45.90;;;;;;5042307;28;20540;-70
2022/01/24 09:12:12;;;;;;;34.90;21.65;;;17.50;44.60;;;;;;5046357;28;20027;-72
2022/01/24 09:14:43;;;;;;;35.08;21.13;;;18.00;43.60;;;;;;5049182;28;20412;-72
2022/01/24 09:17:11;;;;;;;38.22;22.95;;;18.60;41.60;;;;;;5048722;28;20572;-74
2022/01/24 09:19:36;;;;;;;35.17;22.23;;;19.00;40.30;;;;;;5039105;28;20051;-73
2022/01/24 09:22:03;;;;;;;37.22;22.48;;;19.40;39.30;;;;;;5042377;28;20503;-72
2022/01/24 09:24:28;;;;;;;34.10;22.00;;;19.80;38.30;;;;;;5038927;28;20507;-72
2022/01/24 09:26:54;;;;;;;40.50;21.95;;;20.20;37.60;;;;;;5046449;28;20021;-72
2022/01/24 09:29:20;;;;;;;32.85;20.70;;;20.60;36.70;;;;;;5048850;28;20122;-72
2022/01/24 09:31:46;;;;;;;32.35;21.77;;;20.90;36.00;;;;;;5050834;28;20029;-72
2022/01/24 09:34:11;;;;;;;33.92;21.90;;;21.30;34.90;;;;;;5046175;28;20060;-72
2022/01/24 09:36:39;;;;;;;32.92;21.70;;;21.70;33.50;;;;;;5041894;28;20053;-72
2022/01/24 09:39:04;;;;;;;30.58;20.98;;;21.90;32.40;;;;;;5046941;28;20100;-72
2022/01/24 09:41:30;;;;;;;35.17;21.70;;;22.00;32.00;;;;;;5040826;28;20032;-71
2022/01/24 09:43:56;;;;;;;29.55;21.10;;;22.00;31.50;;;;;;5045524;28;20060;-72
2022/01/24 09:46:22;;;;;;;32.53;20.35;;;22.10;31.00;;;;;;5047482;28;20403;-73
2022/01/24 09:48:51;;;;;;;32.10;20.65;;;21.50;32.00;;;;;;5048204;28;20471;-72
2022/01/24 09:51:17;;;;;;;37.35;22.00;;;19.40;35.90;;;;;;5047111;28;20056;-72
2022/01/24 09:53:43;;;;;;;34.10;20.15;;;19.10;36.50;;;;;;5046677;28;20026;-72
2022/01/24 09:56:08;;;;;;;30.35;20.00;;;19.10;36.40;;;;;;5046882;28;20457;-72
2022/01/24 09:58:36;;;;;;;30.33;20.20;;;20.20;34.70;;;;;;5049466;28;20098;-72
2022/01/24 10:01:08;;;;;;;31.92;21.05;;;21.40;32.90;;;;;;5046089;28;20033;-72
2022/01/24 10:03:34;;;;;;;30.42;21.17;;;22.10;31.10;;;;;;5046438;28;20124;-72
2022/01/24 10:06:00;;;;;;;31.48;20.33;;;22.70;30.00;;;;;;5048822;28;20033;-72
2022/01/24 10:08:27;;;;;;;29.52;21.02;;;23.10;29.70;;;;;;5048021;28;20025;-72
2022/01/24 10:10:59;;;;;;;30.50;19.90;;;23.40;28.90;;;;;;5046516;28;20033;-72
2022/01/24 10:16:33;;;;;;;31.35;19.60;;;23.80;28.20;;;;;;5047971;28;20059;-73
2022/01/24 10:19:11;;;;;;;30.85;20.75;;;24.00;27.90;;;;;;5043159;28;20456;-73
2022/01/24 10:21:54;;;;;;;29.60;21.13;;;24.10;27.60;;;;;;5041553;28;20459;-72
2022/01/24 10:24:26;;;;;;;29.17;21.02;;;24.10;27.70;;;;;;5043344;28;20095;-72
2022/01/24 10:27:28;;;;;;;31.20;20.45;;;24.30;27.40;;;;;;5036963;28;20033;-72
2022/01/24 10:30:10;;;;;;;39.10;21.50;;;24.40;27.10;;;;;;4987190;28;20042;-72
2022/01/24 10:32:52;;;;;;;31.23;21.08;;;24.50;26.80;;;;;;4990311;28;20034;-72
2022/01/24 10:35:43;;;;;;;29.45;22.98;;;24.60;26.60;;;;;;4990267;28;20537;-73
2022/01/24 10:38:58;;;;;;;26.92;22.95;;;24.50;26.80;;;;;;4988540;28;20034;-73
2022/01/24 10:41:22;;;;;;;28.83;25.83;;;24.70;26.80;;;;;;4987252;28;20080;-73
2022/01/24 10:43:48;;;;;;;27.98;23.63;;;25.00;26.40;;;;;;4990945;28;20097;-72
2022/01/24 10:46:20;;;;;;;26.80;23.02;;;25.10;26.30;;;;;;4989291;28;20042;-72
2022/01/24 10:48:49;;;;;;;32.78;29.35;;;25.20;26.10;;;;;;4991272;28;20030;-73
2022/01/24 10:51:19;;;;;;;31.27;28.02;;;25.40;25.90;;;;;;4986490;28;20026;-73
2022/01/24 10:53:54;;;;;;;38.20;30.00;;;25.50;25.80;;;;;;4989673;28;20030;-73
2022/01/24 10:56:35;;;;;;;33.90;28.05;;;25.40;26.10;;;;;;4989867;28;20532;-73
2022/01/24 10:59:15;;;;;;;22.98;18.23;;;25.60;25.60;;;;;;4982623;28;20402;-73
2022/01/24 11:01:49;;;;;;;19.77;17.42;;;25.60;25.40;;;;;;4981437;28;20035;-72
2022/01/24 11:04:16;;;;;;;20.98;16.90;;;25.60;25.20;;;;;;4988531;28;20078;-72
2022/01/24 11:06:48;;;;;;;20.80;16.73;;;25.50;25.30;;;;;;5042895;28;20025;-73
2022/01/24 11:09:23;;;;;;;21.52;16.48;;;25.20;25.90;;;;;;5042576;28;20572;-73
2022/01/24 11:11:53;;;;;;;20.92;16.38;;;25.10;25.80;;;;;;5048853;28;20021;-73
2022/01/24 11:14:20;;;;;;;21.17;16.13;;;25.30;25.60;;;;;;5050740;28;20090;-73
2022/01/24 11:16:48;;;;;;;20.77;16.38;;;25.30;25.60;;;;;;5049420;28;20104;-73
2022/01/24 11:19:19;;;;;;;19.23;15.85;;;25.30;25.40;;;;;;5050700;28;20029;-73
2022/01/24 11:21:46;;;;;;;19.58;15.70;;;25.30;25.30;;;;;;5047266;28;20502;-72
2022/01/24 11:24:19;;;;;;;20.58;15.65;;;25.10;25.20;;;;;;5044254;28;20091;-73
2022/01/24 11:26:46;;;;;;;18.00;14.63;;;25.10;25.30;;;;;;5049219;28;20034;-73
2022/01/24 11:29:12;;;;;;;20.20;15.57;;;24.70;26.00;;;;;;5037435;28;20488;-73
2022/01/24 11:31:56;;;;;;;20.20;15.40;;;24.80;25.80;;;;;;5049707;28;20013;-73
2022/01/24 11:34:35;;;;;;;18.35;14.70;;;24.90;25.80;;;;;;5048359;28;20048;-73
2022/01/24 11:37:01;;;;;;;17.88;14.32;;;25.00;25.50;;;;;;5050268;28;20383;-74
2022/01/24 11:39:27;;;;;;;22.17;14.43;;;25.10;25.30;;;;;;5047855;28;20120;-73
2022/01/24 11:41:54;;;;;;;18.98;15.07;;;25.10;25.60;;;;;;5048472;28;20112;-73
2022/01/24 11:44:22;;;;;;;20.13;14.95;;;25.10;25.50;;;;;;5050795;28;20511;-73
2022/01/24 11:46:49;;;;;;;19.10;14.70;;;25.20;25.90;;;;;;5051355;28;20025;-73
2022/01/24 11:49:27;;;;;;;19.25;15.57;;;25.50;25.30;;;;;;5047597;28;20067;-73
2022/01/24 11:52:17;;;;;;;26.40;18.23;;;25.50;25.40;;;;;;5048280;28;20033;-73
2022/01/24 11:54:44;;;;;;;25.05;18.33;;;25.70;25.20;;;;;;5050069;28;20035;-73
2022/01/24 11:57:36;;;;;;;18.75;14.60;;;25.80;25.20;;;;;;5049798;28;20044;-73
2022/01/24 12:00:05;;;;;;;18.45;13.88;;;26.00;24.80;;;;;;5045735;28;20064;-73
2022/01/24 12:03:14;;;;;;;18.38;14.27;;;25.90;25.00;;;;;;5044375;28;20029;-73
2022/01/24 12:05:43;;;;;;;19.52;14.75;;;26.00;24.30;;;;;;5009185;28;20030;-73
2022/01/24 12:08:11;;;;;;;18.03;14.30;;;26.10;24.30;;;;;;5009015;28;20030;-73
2022/01/24 12:10:43;;;;;;;18.52;14.40;;;25.80;25.00;;;;;;5004375;28;20417;-73
2022/01/24 12:13:35;;;;;;;18.90;14.45;;;25.80;24.30;;;;;;5000186;28;20113;-73
2022/01/24 12:16:11;;;;;;;18.13;14.43;;;25.90;24.50;;;;;;5000753;28;20026;-76
2022/01/24 12:18:37;;;;;;;18.13;13.70;;;25.90;25.40;;;;;;5001948;28;20168;-74
2022/01/24 12:21:05;;;;;;;20.33;13.35;;;26.10;24.70;;;;;;5001916;28;20507;-74
2022/01/24 12:23:42;;;;;;;17.30;14.25;;;26.20;24.60;;;;;;4999796;28;20038;-73
2022/01/24 12:26:11;;;;;;;18.42;13.77;;;26.50;24.30;;;;;;4995031;28;20042;-73
2022/01/24 12:28:48;;;;;;;18.92;13.05;;;26.60;24.10;;;;;;5006577;28;20026;-73
2022/01/24 12:31:37;;;;;;;17.48;12.70;;;26.80;23.60;;;;;;5003731;28;20112;-73
2022/01/24 12:34:25;;;;;;;18.77;13.30;;;26.70;23.90;;;;;;5008294;28;20033;-73
2022/01/24 12:37:00;;;;;;;16.85;12.63;;;26.70;24.30;;;;;;5008774;28;20034;-72
2022/01/24 12:39:34;;;;;;;17.48;12.57;;;26.50;24.00;;;;;;5025661;28;20025;-72
2022/01/24 12:42:10;;;;;;;17.55;12.85;;;26.50;24.10;;;;;;5048001;28;20566;-72
2022/01/24 12:47:05;;;;;;;17.60;12.80;;;26.50;23.80;;;;;;5051145;28;20040;-72
2022/01/24 12:49:31;;;;;;;17.98;13.82;;;26.50;24.00;;;;;;5049500;28;20051;-72
2022/01/24 12:52:10;;;;;;;20.08;13.32;;;26.50;23.90;;;;;;5046993;28;20033;-72
2022/01/24 12:54:41;;;;;;;44.45;14.18;;;26.40;24.00;;;;;;5049009;28;20048;-72
2022/01/24 12:57:10;;;;;;;16.15;13.13;;;26.40;24.00;;;;;;5048523;28;20033;-72
2022/01/24 12:59:37;;;;;;;19.25;13.02;;;26.50;23.60;;;;;;5046122;28;20024;-72
2022/01/24 13:02:08;;;;;;;18.50;13.45;;;26.60;23.20;;;;;;5050714;28;20112;-72
2022/01/24 13:04:42;;;;;;;18.95;13.50;;;26.50;23.80;;;;;;5049631;28;20033;-72
2022/01/24 13:07:09;;;;;;;19.63;13.70;;;26.50;23.40;;;;;;5047331;28;20064;-72
2022/01/24 13:09:36;;;;;;;18.30;13.15;;;26.50;23.40;;;;;;5045953;28;20098;-72
2022/01/24 13:12:09;;;;;;;18.77;13.73;;;26.20;23.60;;;;;;5047113;28;20071;-72
2022/01/24 13:14:52;;;;;;;17.08;13.52;;;26.10;23.80;;;;;;5032144;28;20146;-72
2022/01/24 13:22:58;;;;;;;18.67;13.40;;;25.90;24.30;;;;;;5050301;28;20546;-72
2022/01/24 13:25:26;;;;;;;18.85;13.52;;;26.00;24.60;;;;;;5046783;28;20053;-73
2022/01/24 13:27:55;;;;;;;18.67;13.52;;;26.10;24.30;;;;;;5047095;28;20025;-72
2022/01/24 13:30:27;;;;;;;20.02;13.52;;;26.00;24.50;;;;;;5048076;28;20063;-72
2022/01/24 13:32:55;;;;;;;19.33;13.73;;;25.90;24.70;;;;;;5046654;28;22532;-72
2022/01/24 13:35:25;;;;;;;18.42;14.00;;;26.10;24.50;;;;;;5048856;28;20025;-72
2022/01/24 13:37:51;;;;;;;18.10;13.07;;;26.00;25.30;;;;;;5049499;28;20032;-72
2022/01/24 13:40:40;;;;;;;23.75;13.52;;;25.90;24.50;;;;;;5046963;28;20415;-71
2022/01/24 13:43:09;;;;;;;19.48;13.70;;;26.00;24.10;;;;;;5043792;28;20017;-72
2022/01/24 13:45:37;;;;;;;20.27;13.60;;;26.00;24.20;;;;;;5046547;28;20040;-71
2022/01/24 13:48:05;;;;;;;18.35;13.32;;;25.90;24.00;;;;;;5046447;28;20395;-70
2022/01/24 13:50:32;;;;;;;19.45;13.88;;;25.80;24.10;;;;;;5031334;28;20028;-71
2022/01/24 13:52:58;;;;;;;21.33;13.73;;;25.60;24.60;;;;;;5050741;28;20100;-71
2022/01/24 13:55:24;;;;;;;19.35;13.55;;;25.50;24.60;;;;;;5047343;28;20556;-71
2022/01/24 13:57:54;;;;;;;21.65;13.25;;;25.40;24.70;;;;;;5046592;28;20124;-71
2022/01/24 14:00:23;;;;;;;20.95;14.70;;;25.40;24.70;;;;;;5045695;28;20112;-71
2022/01/24 14:02:50;;;;;;;20.42;13.85;;;25.30;25.10;;;;;;5048883;28;20046;-71
2022/01/24 14:05:16;;;;;;;21.02;14.57;;;25.20;25.00;;;;;;5052986;28;20045;-71
2022/01/24 14:07:42;;;;;;;20.35;13.80;;;25.20;25.20;;;;;;5052570;28;20112;-72
2022/01/24 14:10:11;;;;;;;20.33;14.95;;;25.10;25.30;;;;;;5049697;28;20123;-71
2022/01/24 14:12:45;;;;;;;18.63;14.10;;;25.10;25.20;;;;;;5050277;28;20033;-71
2022/01/24 14:15:28;;;;;;;19.70;13.73;;;25.20;25.10;;;;;;5050477;28;20047;-71
2022/01/24 14:20:46;;;;;;;19.48;14.20;;;24.90;25.50;;;;;;5049224;28;20037;-71
2022/01/24 14:23:35;;;;;;;19.55;13.70;;;24.70;26.20;;;;;;5051936;28;20017;-70
2022/01/24 14:26:19;;;;;;;22.13;15.32;;;24.50;26.60;;;;;;5050218;28;20556;-71
2022/01/24 14:28:48;;;;;;;19.83;14.70;;;24.30;26.90;;;;;;5044476;28;20025;-71
2022/01/24 14:31:15;;;;;;;19.92;14.35;;;24.30;26.40;;;;;;5047563;28;20156;-70
2022/01/24 14:33:43;;;;;;;18.90;13.40;;;24.20;26.40;;;;;;5038936;28;20045;-70